Don Quichotte — ZDPZ8 — position and weather

sailwx.info

Track history (hours):
 
Tides and Currents Weather Stations Pressure Air Temp Water Temp Dewpoint Dewpoint Depression Visibility Wind Speed Wind Dir Waves Ship Positions

Don Quichotte

Last reported at 2018-Jul-17 12:30 UTC. Time now 2018-Aug-20 16:21 UTC.
Position N 37°15' E 024°50'.
Warning: this ship's position is 34 days out of date.

Type: Sailing vessel. MMSI: 236112243.

Date/timePositionNaut miles runAvg speedWind from/ knotsBaromVisibWave heightAir tempDewpointWater temp
2018-Jul-17 12:30N 37°15' E 024°50'3 4.6
2018-Jul-17 11:57N 37°14' E 024°52'3 5.3
2018-Jul-17 11:25N 37°12' E 024°55'2 5.4
2018-Jul-17 10:58N 37°10' E 024°57'3 5.8
2018-Jul-17 10:30N 37°09' E 025°00'3 5.7
2018-Jul-17 09:57N 37°07' E 025°03'2 4.4
2018-Jul-17 09:30N 37°05' E 025°05'2 1.8
2018-Jul-17 08:36N 37°04' E 025°06'0 1.0
2018-Jul-17 08:15N 37°04' E 025°06'0 1.3
2018-Jul-17 07:57N 37°03' E 025°06'2 3.4
2018-Jul-17 07:30N 37°02' E 025°05'  
2018-Jul-12 09:37N 37°03' E 025°04'  
Track history (hours):
 
Tides and Currents Weather Stations Pressure Air Temp Water Temp Dewpoint Dewpoint Depression Visibility Wind Speed Wind Dir Waves Ship Positions

Don Quichotte

Last reported at 2018-Jul-17 12:30 UTC. Time now 2018-Aug-20 16:21 UTC.
Position N 37°15' E 024°50'.
Warning: this ship's position is 34 days out of date.

Type: Sailing vessel. MMSI: 236112243.

Date/timePositionNaut miles runAvg speedWind from/ knotsBaromVisibWave heightAir tempDewpointWater temp
2018-Jul-17 12:30N 37°15' E 024°50'3 4.6
2018-Jul-17 11:57N 37°14' E 024°52'3 5.3
2018-Jul-17 11:25N 37°12' E 024°55'2 5.4
2018-Jul-17 10:58N 37°10' E 024°57'3 5.8
2018-Jul-17 10:30N 37°09' E 025°00'3 5.7
2018-Jul-17 09:57N 37°07' E 025°03'2 4.4
2018-Jul-17 09:30N 37°05' E 025°05'2 1.8
2018-Jul-17 08:36N 37°04' E 025°06'0 1.0
2018-Jul-17 08:15N 37°04' E 025°06'0 1.3
2018-Jul-17 07:57N 37°03' E 025°06'2 3.4
2018-Jul-17 07:30N 37°02' E 025°05'  
2018-Jul-12 09:37N 37°03' E 025°04'  

Dump ship's entire track history